createdAt,value
2022-10-20T00:00:56.915Z,63.41
2022-10-20T00:03:24.997Z,63.65
2022-10-20T00:05:51.811Z,64.35
2022-10-20T00:08:18.562Z,63.77
2022-10-20T00:10:55.604Z,63.44
2022-10-20T00:13:23.259Z,63.56
2022-10-20T00:15:51.180Z,63.58
2022-10-20T00:18:17.943Z,63.78
2022-10-20T00:20:44.765Z,63.57
2022-10-20T00:23:11.483Z,62.99
2022-10-20T00:25:38.283Z,62.92
2022-10-20T00:28:05.777Z,63.21
2022-10-20T00:30:33.932Z,62.99
2022-10-20T00:33:01.107Z,62.37
2022-10-20T00:35:27.685Z,62.40
2022-10-20T00:37:54.301Z,62.24
2022-10-20T00:40:20.968Z,62.78
2022-10-20T00:42:48.219Z,62.73
2022-10-20T00:45:17.716Z,62.69
2022-10-20T00:48:05.126Z,62.83
2022-10-20T00:50:41.703Z,63.46
2022-10-20T00:53:08.541Z,62.85
2022-10-20T00:55:40.534Z,62.67
2022-10-20T00:58:07.388Z,63.01
2022-10-20T01:00:34.412Z,63.47
2022-10-20T01:03:02.711Z,62.77
2022-10-20T01:05:29.344Z,63.63
2022-10-20T01:07:56.015Z,62.56
2022-10-20T01:10:25.393Z,62.77
2022-10-20T01:13:29.211Z,62.44
2022-10-20T01:16:09.433Z,62.20
2022-10-20T01:18:35.971Z,62.58
2022-10-20T01:21:26.594Z,61.90
2022-10-20T01:24:32.011Z,62.51
2022-10-20T01:27:33.099Z,62.40
2022-10-20T01:30:13.513Z,62.60
2022-10-20T01:33:04.842Z,62.40
2022-10-20T01:35:55.088Z,62.29
2022-10-20T01:38:42.377Z,61.45
2022-10-20T01:41:21.603Z,61.53
2022-10-20T01:43:49.900Z,61.36
2022-10-20T01:46:21.691Z,60.63
2022-10-20T01:48:49.207Z,61.47
2022-10-20T01:51:15.955Z,61.33
2022-10-20T01:53:42.547Z,61.17
2022-10-20T01:56:18.338Z,61.31
2022-10-20T01:59:06.419Z,61.44
2022-10-20T02:01:41.896Z,61.95
2022-10-20T02:04:09.643Z,61.97
2022-10-20T02:06:47.647Z,61.75
2022-10-20T02:09:22.981Z,61.84
2022-10-20T02:12:13.498Z,62.16
2022-10-20T02:14:42.190Z,61.65
2022-10-20T02:17:14.240Z,61.82
2022-10-20T02:19:44.833Z,62.16
2022-10-20T02:22:14.105Z,62.28
2022-10-20T02:24:42.300Z,61.32
2022-10-20T02:27:21.022Z,60.91
2022-10-20T02:29:55.017Z,61.18
2022-10-20T02:32:22.966Z,60.06
2022-10-20T02:34:49.586Z,60.84
2022-10-20T02:39:48.101Z,60.83
2022-10-20T02:42:17.131Z,61.40
2022-10-20T02:44:44.078Z,61.40
2022-10-20T02:47:10.807Z,61.28
2022-10-20T02:49:37.378Z,61.25
2022-10-20T02:52:04.067Z,61.62
2022-10-20T02:54:30.642Z,61.28
2022-10-20T02:56:57.274Z,61.01
2022-10-20T02:59:23.918Z,60.73
2022-10-20T03:01:52.354Z,60.87
2022-10-20T03:04:19.077Z,61.07
2022-10-20T03:06:45.691Z,60.19
2022-10-20T03:09:12.545Z,60.07
2022-10-20T03:11:39.155Z,60.88
2022-10-20T03:14:05.770Z,60.39
2022-10-20T03:16:32.385Z,60.09
2022-10-20T03:19:03.356Z,60.11
2022-10-20T03:21:33.949Z,59.86
2022-10-20T03:24:00.682Z,59.39
2022-10-20T03:26:27.354Z,60.04
2022-10-20T03:28:53.967Z,59.29
2022-10-20T03:31:20.715Z,59.99
2022-10-20T03:33:47.311Z,60.02
2022-10-20T03:36:13.917Z,59.38
2022-10-20T03:38:43.329Z,59.38
2022-10-20T03:41:10.380Z,60.23
2022-10-20T03:43:39.124Z,60.91
2022-10-20T03:46:08.375Z,61.05
2022-10-20T03:48:35.712Z,61.93
2022-10-20T03:51:02.987Z,61.35
2022-10-20T03:53:30.182Z,61.68
2022-10-20T03:55:56.786Z,61.45
2022-10-20T03:58:23.714Z,61.66
2022-10-20T04:00:50.570Z,61.57
2022-10-20T04:03:17.199Z,61.51
2022-10-20T04:05:43.838Z,61.84
2022-10-20T04:08:10.508Z,62.97
2022-10-20T04:10:37.203Z,62.82
2022-10-20T04:13:04.034Z,62.67
2022-10-20T04:15:31.071Z,62.77
2022-10-20T04:17:58.110Z,62.77
2022-10-20T04:20:24.863Z,62.18
2022-10-20T04:22:51.544Z,62.57
2022-10-20T04:25:18.337Z,63.02
2022-10-20T04:27:44.972Z,62.52
2022-10-20T04:30:11.931Z,63.12
2022-10-20T04:32:38.522Z,63.67
2022-10-20T04:35:05.713Z,63.49
2022-10-20T04:37:32.358Z,62.99
2022-10-20T04:39:58.972Z,63.54
2022-10-20T04:42:25.756Z,63.68
2022-10-20T04:44:52.372Z,63.88
2022-10-20T04:47:18.983Z,64.27
2022-10-20T04:49:45.590Z,63.64
2022-10-20T04:52:12.142Z,63.29
2022-10-20T04:54:38.739Z,63.01
2022-10-20T04:57:06.297Z,63.26
2022-10-20T04:59:32.930Z,62.73
2022-10-20T05:01:59.550Z,63.91
2022-10-20T05:04:26.347Z,63.26
2022-10-20T05:06:52.983Z,63.76
2022-10-20T05:09:19.605Z,63.75
2022-10-20T05:11:46.484Z,64.44
2022-10-20T05:14:13.214Z,64.23
2022-10-20T05:16:39.778Z,64.07
2022-10-20T05:19:06.451Z,63.43
2022-10-20T05:21:33.281Z,63.46
2022-10-20T05:24:02.360Z,63.48
2022-10-20T05:26:34.465Z,64.03
2022-10-20T05:29:03.254Z,63.49
2022-10-20T05:31:29.931Z,63.01
2022-10-20T05:33:57.280Z,62.55
2022-10-20T05:36:26.778Z,63.64
2022-10-20T05:38:54.979Z,63.42
2022-10-20T05:41:27.358Z,63.89
2022-10-20T05:43:59.766Z,63.66
2022-10-20T05:46:28.437Z,63.16
2022-10-20T05:48:57.823Z,63.32
2022-10-20T05:51:27.996Z,63.05
2022-10-20T05:53:58.776Z,63.46
2022-10-20T05:56:26.858Z,63.17
2022-10-20T05:58:53.939Z,62.87
2022-10-20T06:01:38.809Z,63.17
2022-10-20T06:04:06.686Z,64.42
2022-10-20T06:06:33.270Z,64.64
2022-10-20T06:09:00.943Z,64.90
2022-10-20T06:11:28.582Z,64.24
2022-10-20T06:13:56.588Z,64.01
2022-10-20T06:16:25.414Z,64.12
2022-10-20T06:18:52.935Z,65.00
2022-10-20T06:21:25.831Z,64.74
2022-10-20T06:23:52.814Z,65.45
2022-10-20T06:26:21.716Z,66.50
2022-10-20T06:28:51.757Z,66.72
2022-10-20T06:31:30.397Z,66.21
2022-10-20T06:33:58.043Z,66.67
2022-10-20T06:36:25.590Z,66.35
2022-10-20T06:38:57.466Z,65.89
2022-10-20T06:41:26.136Z,66.45
2022-10-20T06:43:58.373Z,66.16
2022-10-20T06:46:27.244Z,66.08
2022-10-20T06:48:57.908Z,66.00
2022-10-20T06:51:26.161Z,66.23
2022-10-20T06:53:53.102Z,66.49
2022-10-20T06:56:22.966Z,66.20
2022-10-20T06:58:53.280Z,66.63
2022-10-20T07:01:24.967Z,66.51
2022-10-20T07:03:54.719Z,66.80
2022-10-20T07:06:27.119Z,66.06
2022-10-20T07:08:54.804Z,66.51
2022-10-20T07:11:24.479Z,66.26
2022-10-20T07:13:51.388Z,66.14
2022-10-20T07:16:20.554Z,66.30
2022-10-20T07:18:48.036Z,66.30
2022-10-20T07:21:17.357Z,66.47
2022-10-20T07:23:44.948Z,65.91
2022-10-20T07:26:16.002Z,65.88
2022-10-20T07:28:44.705Z,65.61
2022-10-20T07:31:32.512Z,66.21
2022-10-20T07:34:12.763Z,66.01
2022-10-20T07:36:43.288Z,66.07
2022-10-20T07:39:12.447Z,66.74
2022-10-20T07:41:39.754Z,66.68
2022-10-20T07:44:07.678Z,66.59
2022-10-20T07:46:34.971Z,65.73
2022-10-20T07:51:48.389Z,66.19
2022-10-20T07:54:15.033Z,66.55
2022-10-20T07:56:43.187Z,65.55
2022-10-20T07:59:11.671Z,65.29
2022-10-20T08:01:38.836Z,65.57
2022-10-20T08:04:05.438Z,65.57
2022-10-20T08:06:32.116Z,65.74
2022-10-20T08:09:00.256Z,65.66
2022-10-20T08:11:27.527Z,65.54
2022-10-20T08:13:54.148Z,65.66
2022-10-20T08:16:31.982Z,65.36
2022-10-20T08:21:47.863Z,65.66
2022-10-20T08:24:14.456Z,65.46
2022-10-20T08:26:41.057Z,64.94
2022-10-20T08:29:07.653Z,65.60
2022-10-20T08:31:34.249Z,65.64
2022-10-20T08:34:00.995Z,65.36
2022-10-20T08:36:30.677Z,64.78
2022-10-20T08:39:03.616Z,65.05
2022-10-20T08:41:55.445Z,65.05
2022-10-20T08:44:30.300Z,65.08
2022-10-20T08:46:58.124Z,64.89
2022-10-20T08:49:28.832Z,65.08
2022-10-20T08:51:55.499Z,64.99
2022-10-20T08:54:22.297Z,64.65
2022-10-20T08:56:48.905Z,64.96
2022-10-20T08:59:29.858Z,65.06
2022-10-20T09:01:57.989Z,64.36
2022-10-20T09:04:35.023Z,64.53
2022-10-20T09:07:10.935Z,64.80
2022-10-20T09:09:37.564Z,64.33
2022-10-20T09:12:12.403Z,64.23
2022-10-20T09:14:39.205Z,64.55
2022-10-20T09:17:13.148Z,64.12
2022-10-20T09:19:42.908Z,63.67
2022-10-20T09:22:13.594Z,62.44
2022-10-20T09:24:42.853Z,62.51
2022-10-20T09:27:23.419Z,62.38
2022-10-20T09:29:50.565Z,61.78
2022-10-20T09:35:13.562Z,60.25
2022-10-20T09:37:40.373Z,58.32
2022-10-20T09:40:15.451Z,57.29
2022-10-20T09:42:51.200Z,57.61
2022-10-20T09:45:30.140Z,57.06
2022-10-20T09:48:02.679Z,57.79
2022-10-20T09:50:38.539Z,55.82
2022-10-20T09:53:15.460Z,56.04
2022-10-20T09:55:47.584Z,55.11
2022-10-20T09:58:39.159Z,53.85
2022-10-20T10:01:11.780Z,54.21
2022-10-20T10:03:45.124Z,54.82
2022-10-20T10:06:38.990Z,54.04
2022-10-20T10:09:34.570Z,53.04
2022-10-20T10:12:05.331Z,52.79
2022-10-20T10:14:36.267Z,52.37
2022-10-20T10:17:03.132Z,53.24
2022-10-20T10:19:33.120Z,52.58
2022-10-20T10:22:03.035Z,51.24
2022-10-20T10:24:32.629Z,52.83
2022-10-20T10:26:59.762Z,52.03
2022-10-20T10:29:33.751Z,51.31
2022-10-20T10:32:00.317Z,52.00
2022-10-20T10:34:56.049Z,51.70
2022-10-20T10:37:23.004Z,50.87
2022-10-20T10:39:49.838Z,50.65
2022-10-20T10:42:54.961Z,50.15
2022-10-20T10:45:38.451Z,50.67
2022-10-20T10:48:29.002Z,50.41
2022-10-20T10:51:08.848Z,49.04
2022-10-20T10:53:58.514Z,49.85
2022-10-20T10:56:42.319Z,48.73
2022-10-20T10:59:17.789Z,49.09
2022-10-20T11:02:16.776Z,48.28
2022-10-20T11:04:55.339Z,47.68
2022-10-20T11:07:59.997Z,46.62
2022-10-20T11:10:54.842Z,47.24
2022-10-20T11:13:48.609Z,46.48
2022-10-20T11:16:33.681Z,46.67
2022-10-20T11:19:37.620Z,45.61
2022-10-20T11:22:56.898Z,44.38
2022-10-20T11:25:46.924Z,45.12
2022-10-20T11:28:29.553Z,43.98
2022-10-20T11:30:59.100Z,45.73
2022-10-20T11:33:39.281Z,44.00
2022-10-20T11:36:19.406Z,44.28
2022-10-20T11:38:50.986Z,45.47
2022-10-20T11:41:31.266Z,44.63
2022-10-20T11:44:06.802Z,44.15
2022-10-20T11:46:52.365Z,43.41
2022-10-20T11:49:19.356Z,44.64
2022-10-20T11:52:05.010Z,44.23
2022-10-20T11:54:34.435Z,43.44
2022-10-20T11:57:12.889Z,44.15
2022-10-20T11:59:39.453Z,43.81
2022-10-20T12:02:30.183Z,44.43
2022-10-20T12:05:15.585Z,44.97
2022-10-20T12:07:54.177Z,44.93
2022-10-20T12:10:44.012Z,45.15
2022-10-20T12:13:31.508Z,45.36
2022-10-20T12:15:58.195Z,45.04
2022-10-20T12:18:35.927Z,45.22
2022-10-20T12:21:05.673Z,45.03
2022-10-20T12:23:45.078Z,44.22
2022-10-20T12:27:01.991Z,43.86
2022-10-20T12:29:31.126Z,43.65
2022-10-20T12:32:24.361Z,44.12
2022-10-20T12:34:57.871Z,44.53
2022-10-20T12:37:27.180Z,44.72
2022-10-20T12:39:56.166Z,44.77
2022-10-20T12:42:33.406Z,45.32
2022-10-20T12:45:07.026Z,44.91
2022-10-20T12:47:36.983Z,44.89
2022-10-20T12:50:33.869Z,45.24
2022-10-20T12:53:29.610Z,44.78
2022-10-20T12:56:08.349Z,46.14
2022-10-20T12:58:37.447Z,45.79
2022-10-20T13:01:11.059Z,46.32
2022-10-20T13:03:49.095Z,46.79
2022-10-20T13:06:26.297Z,47.03
2022-10-20T13:09:21.119Z,47.11
2022-10-20T13:11:59.501Z,46.92
2022-10-20T13:14:48.607Z,47.53
2022-10-20T13:17:50.345Z,47.14
2022-10-20T13:20:45.798Z,47.68
2022-10-20T13:23:17.474Z,47.53
2022-10-20T13:25:44.036Z,48.06
2022-10-20T13:28:13.366Z,47.33
2022-10-20T13:30:55.190Z,47.05
2022-10-20T13:34:03.182Z,46.43
2022-10-20T13:36:47.964Z,46.16
2022-10-20T13:39:45.600Z,46.37
2022-10-20T13:42:21.165Z,46.46
2022-10-20T13:45:11.542Z,46.27
2022-10-20T13:47:47.119Z,47.09
2022-10-20T13:50:28.043Z,47.53
2022-10-20T13:52:57.808Z,48.17
2022-10-20T13:55:30.530Z,48.51
2022-10-20T13:58:03.653Z,49.17
2022-10-20T14:00:33.180Z,48.91
2022-10-20T14:03:05.093Z,49.16
2022-10-20T14:05:39.251Z,48.75
2022-10-20T14:08:11.523Z,49.02
2022-10-20T14:10:58.498Z,49.27
2022-10-20T14:13:29.131Z,49.69
2022-10-20T14:15:58.258Z,49.89
2022-10-20T14:18:27.943Z,49.62
2022-10-20T14:21:03.990Z,50.35
2022-10-20T14:23:50.826Z,50.51
2022-10-20T14:26:21.590Z,50.23
2022-10-20T14:28:50.312Z,50.21
2022-10-20T14:31:22.042Z,50.37
2022-10-20T14:33:51.554Z,50.06
2022-10-20T14:39:01.153Z,50.47
2022-10-20T14:41:33.852Z,50.79
2022-10-20T14:44:14.756Z,50.80
2022-10-20T14:46:50.490Z,50.57
2022-10-20T14:49:22.826Z,50.30
2022-10-20T14:51:59.433Z,50.49
2022-10-20T14:54:37.932Z,50.28
2022-10-20T14:57:10.470Z,51.14
2022-10-20T14:59:56.139Z,51.81
2022-10-20T15:02:25.278Z,51.28
2022-10-20T15:04:54.966Z,51.64
2022-10-20T15:07:32.923Z,51.27
2022-10-20T15:10:07.458Z,52.16
2022-10-20T15:12:36.984Z,52.10
2022-10-20T15:15:11.946Z,52.19
2022-10-20T15:17:47.929Z,52.42
2022-10-20T15:20:40.161Z,52.66
2022-10-20T15:23:20.066Z,53.50
2022-10-20T15:25:58.932Z,52.52
2022-10-20T15:28:45.998Z,52.82
2022-10-20T15:31:12.546Z,52.16
2022-10-20T15:33:39.854Z,53.14
2022-10-20T15:36:15.587Z,53.80
2022-10-20T15:38:43.371Z,53.42
2022-10-20T15:41:22.310Z,53.42
2022-10-20T15:43:49.139Z,54.24
2022-10-20T15:46:17.335Z,53.67
2022-10-20T15:48:44.851Z,53.29
2022-10-20T15:51:17.935Z,53.86
2022-10-20T15:53:47.030Z,53.48
2022-10-20T15:56:13.615Z,53.88
2022-10-20T15:58:40.228Z,54.12
2022-10-20T16:01:07.858Z,53.69
2022-10-20T16:03:35.806Z,53.00
2022-10-20T16:06:02.365Z,53.12
2022-10-20T16:08:29.064Z,52.96
2022-10-20T16:10:56.287Z,53.54
2022-10-20T16:13:23.030Z,52.75
2022-10-20T16:15:49.611Z,52.79
2022-10-20T16:18:16.184Z,52.66
2022-10-20T16:20:42.779Z,52.12
2022-10-20T16:23:09.361Z,52.20
2022-10-20T16:25:39.889Z,52.25
2022-10-20T16:28:07.277Z,51.60
2022-10-20T16:30:33.994Z,51.64
2022-10-20T16:33:00.564Z,51.58
2022-10-20T16:35:27.337Z,51.59
2022-10-20T16:37:53.946Z,51.54
2022-10-20T16:40:20.636Z,51.82
2022-10-20T16:42:47.218Z,51.83
2022-10-20T16:45:13.898Z,53.66
2022-10-20T16:47:40.986Z,52.26
2022-10-20T16:50:08.491Z,52.03
2022-10-20T16:52:35.163Z,51.79
2022-10-20T16:55:01.902Z,52.29
2022-10-20T16:57:29.661Z,52.45
2022-10-20T16:59:56.681Z,53.69
2022-10-20T17:02:23.386Z,54.50
2022-10-20T17:04:50.464Z,53.45
2022-10-20T17:07:17.876Z,53.62
2022-10-20T17:09:44.483Z,53.51
2022-10-20T17:12:11.104Z,54.67
2022-10-20T17:14:38.442Z,54.49
2022-10-20T17:17:05.040Z,56.02
2022-10-20T17:19:31.624Z,54.50
2022-10-20T17:21:58.283Z,54.54
2022-10-20T17:24:24.920Z,54.98
2022-10-20T17:26:51.754Z,54.84
2022-10-20T17:29:23.705Z,54.46
2022-10-20T17:31:52.581Z,54.74
2022-10-20T17:34:19.258Z,54.13
2022-10-20T17:36:45.851Z,53.88
2022-10-20T17:39:16.367Z,53.90
2022-10-20T17:41:43.679Z,54.16
2022-10-20T17:44:10.606Z,55.17
2022-10-20T17:46:37.241Z,54.02
2022-10-20T17:49:03.999Z,54.35
2022-10-20T17:51:33.693Z,56.54
2022-10-20T17:54:01.898Z,56.05
2022-10-20T17:56:35.347Z,55.43
2022-10-20T17:59:03.929Z,56.48
2022-10-20T18:01:36.484Z,55.67
2022-10-20T18:04:08.483Z,55.78
2022-10-20T18:06:35.922Z,56.08
2022-10-20T18:09:06.858Z,57.02
2022-10-20T18:11:35.114Z,56.46
2022-10-20T18:14:03.910Z,56.80
2022-10-20T18:16:32.962Z,55.72
2022-10-20T18:19:00.493Z,55.08
2022-10-20T18:21:29.332Z,55.65
2022-10-20T18:24:07.220Z,55.93
2022-10-20T18:26:35.499Z,55.69
2022-10-20T18:29:03.813Z,55.51
2022-10-20T18:31:32.332Z,55.37
2022-10-20T18:34:04.121Z,55.41
2022-10-20T18:36:36.889Z,55.46
2022-10-20T18:39:07.215Z,55.76
2022-10-20T18:41:38.019Z,55.29
2022-10-20T18:44:08.184Z,55.10
2022-10-20T18:46:35.087Z,55.34
2022-10-20T18:49:03.995Z,56.14
2022-10-20T18:51:31.713Z,56.02
2022-10-20T18:54:00.307Z,55.41
2022-10-20T18:56:28.871Z,55.04
2022-10-20T18:58:57.766Z,54.87
2022-10-20T19:01:27.192Z,55.04
2022-10-20T19:03:55.551Z,55.31
2022-10-20T19:06:31.040Z,54.92
2022-10-20T19:09:03.745Z,55.27
2022-10-20T19:11:32.679Z,55.48
2022-10-20T19:14:00.806Z,55.35
2022-10-20T19:16:30.410Z,55.40
2022-10-20T19:18:59.626Z,55.06
2022-10-20T19:21:28.465Z,56.15
2022-10-20T19:24:22.590Z,56.50
2022-10-20T19:27:21.298Z,56.13
2022-10-20T19:29:44.736Z,55.96
2022-10-20T19:32:12.173Z,56.25
2022-10-20T19:34:40.310Z,56.62
2022-10-20T19:37:08.330Z,56.83
2022-10-20T19:39:39.266Z,58.11
2022-10-20T19:42:07.534Z,57.50
2022-10-20T19:44:34.837Z,56.64
2022-10-20T19:47:01.834Z,56.74
2022-10-20T19:49:28.462Z,56.36
2022-10-20T19:51:55.165Z,56.19
2022-10-20T19:54:22.285Z,56.49
2022-10-20T19:56:48.932Z,57.59
2022-10-20T19:59:15.594Z,57.52
2022-10-20T20:01:42.263Z,57.33
2022-10-20T20:04:10.850Z,57.52
2022-10-20T20:06:37.958Z,57.55
2022-10-20T20:09:07.527Z,57.44
2022-10-20T20:11:36.441Z,56.99
2022-10-20T20:14:21.479Z,57.47
2022-10-20T20:16:48.189Z,57.68
2022-10-20T20:19:16.460Z,57.96
2022-10-20T20:21:43.291Z,57.97
2022-10-20T20:24:11.742Z,57.52
2022-10-20T20:26:38.335Z,58.43
2022-10-20T20:29:05.484Z,57.61
2022-10-20T20:31:33.080Z,57.99
2022-10-20T20:33:59.704Z,57.90
2022-10-20T20:36:27.878Z,57.83
2022-10-20T20:38:57.297Z,58.13
2022-10-20T20:41:26.104Z,57.55
2022-10-20T20:43:52.787Z,57.93
2022-10-20T20:46:22.354Z,58.31
2022-10-20T20:48:50.012Z,58.05
2022-10-20T20:51:17.091Z,57.85
2022-10-20T20:53:43.783Z,57.55
2022-10-20T20:56:14.254Z,57.57
2022-10-20T20:58:42.207Z,57.60
2022-10-20T21:01:12.932Z,58.24
2022-10-20T21:03:40.083Z,58.83
2022-10-20T21:06:09.291Z,58.14
2022-10-20T21:08:37.456Z,58.70
2022-10-20T21:11:25.619Z,58.66
2022-10-20T21:13:53.997Z,58.67
2022-10-20T21:16:26.359Z,59.31
2022-10-20T21:18:58.559Z,59.57
2022-10-20T21:21:31.175Z,59.60
2022-10-20T21:23:59.052Z,59.84
2022-10-20T21:26:26.934Z,60.49
2022-10-20T21:28:53.621Z,60.45
2022-10-20T21:31:22.847Z,60.12
2022-10-20T21:33:51.721Z,59.87
2022-10-20T21:36:19.816Z,60.78
2022-10-20T21:38:46.714Z,60.09
2022-10-20T21:41:16.126Z,59.45
2022-10-20T21:43:46.043Z,59.34
2022-10-20T21:46:28.825Z,59.45
2022-10-20T21:48:59.390Z,59.40
2022-10-20T21:51:27.422Z,60.05
2022-10-20T21:53:58.949Z,61.66
2022-10-20T21:56:25.788Z,61.41
2022-10-20T21:58:53.745Z,62.16
2022-10-20T22:01:23.366Z,61.20
2022-10-20T22:03:51.252Z,62.33
2022-10-20T22:06:19.807Z,60.96
2022-10-20T22:08:48.583Z,60.35
2022-10-20T22:11:26.962Z,60.59
2022-10-20T22:13:54.119Z,60.14
2022-10-20T22:16:23.956Z,60.63
2022-10-20T22:18:59.005Z,61.28
2022-10-20T22:21:26.126Z,62.01
2022-10-20T22:23:57.686Z,62.11
2022-10-20T22:26:27.019Z,62.27
2022-10-20T22:28:54.055Z,62.03
2022-10-20T22:31:21.329Z,61.32
2022-10-20T22:33:47.940Z,61.11
2022-10-20T22:36:14.550Z,61.07
2022-10-20T22:38:41.155Z,60.57
2022-10-20T22:41:07.984Z,60.61
2022-10-20T22:43:34.647Z,60.58
2022-10-20T22:46:01.264Z,61.40
2022-10-20T22:48:27.962Z,61.26
2022-10-20T22:50:54.623Z,61.70
2022-10-20T22:53:21.346Z,61.60
2022-10-20T22:55:47.923Z,61.62
2022-10-20T22:58:14.718Z,60.93
2022-10-20T23:00:43.779Z,60.75
2022-10-20T23:03:10.847Z,60.88
2022-10-20T23:05:37.586Z,60.66
2022-10-20T23:08:04.791Z,60.72
2022-10-20T23:10:31.511Z,61.03
2022-10-20T23:12:58.083Z,61.05
2022-10-20T23:15:24.753Z,61.95
2022-10-20T23:17:51.332Z,61.40
2022-10-20T23:20:18.215Z,61.75
2022-10-20T23:22:45.583Z,61.99
2022-10-20T23:25:12.150Z,62.80
2022-10-20T23:27:39.424Z,64.48
2022-10-20T23:30:06.653Z,65.20
2022-10-20T23:32:33.847Z,66.27
2022-10-20T23:35:00.441Z,65.86
2022-10-20T23:37:27.027Z,64.25
2022-10-20T23:39:53.659Z,64.32
2022-10-20T23:42:20.296Z,64.16
2022-10-20T23:44:46.927Z,66.48
2022-10-20T23:47:13.516Z,65.83
2022-10-20T23:49:40.099Z,65.24
2022-10-20T23:52:06.667Z,66.82
2022-10-20T23:54:33.325Z,67.22
2022-10-20T23:56:59.931Z,68.45
2022-10-20T23:59:26.534Z,68.93
